Saos II — SWZF — position and weather

sailwx.info

Track history (hours):
 
Tides and Currents Weather Stations Pressure Air Temp Water Temp Dewpoint Dewpoint Depression Visibility Wind Speed Wind Dir Waves Ship Positions

Saos II

Last reported at 2018-Jun-19 08:42 UTC. Time now 2018-Jun-20 15:22 UTC.
Position N 40°28' E 025°28'.

Length 75 m; draft 4.5 m.

Type: Passenger vessel. MMSI: 237352400.

Date/timePositionNaut miles runAvg speedWind from/ knotsBaromVisibWave heightAir tempDewpointWater temp
2018-Jun-19 08:42N 40°28' E 025°28'2 5.9
2018-Jun-19 08:26N 40°30' E 025°28'28 2.0
2018-Jun-18 18:43N 40°50' E 025°53'1811.8
2018-Jun-18 17:13N 40°37' E 025°38'513.0
2018-Jun-18 16:51N 40°33' E 025°34'513.0
2018-Jun-18 16:29N 40°30' E 025°29'2 3.6
2018-Jun-18 15:59N 40°28' E 025°28'0 0.0
2018-Jun-18 15:30N 40°28' E 025°28'0 0.0
2018-Jun-18 15:00N 40°28' E 025°28'0 0.0
2018-Jun-18 14:30N 40°28' E 025°28'0 0.0
2018-Jun-18 14:00N 40°28' E 025°28'0 0.0
2018-Jun-18 13:30N 40°28' E 025°28'0 0.0
2018-Jun-18 13:00N 40°28' E 025°28'0 0.0
2018-Jun-18 11:50N 40°28' E 025°28'0 0.0
2018-Jun-18 11:27N 40°28' E 025°28'0 0.0
2018-Jun-18 11:00N 40°28' E 025°28'0 0.0
2018-Jun-18 10:30N 40°28' E 025°28'0 0.0
2018-Jun-18 10:00N 40°28' E 025°28'0 0.0
2018-Jun-18 09:29N 40°28' E 025°28'0 0.0
2018-Jun-18 09:00N 40°28' E 025°28'1 2.1
2018-Jun-18 08:30N 40°30' E 025°28'612.8
2018-Jun-18 08:00N 40°34' E 025°34'2212.0
2018-Jun-18 06:11N 40°50' E 025°53'20 1.2
2018-Jun-17 13:59N 40°35' E 025°37'713.2
2018-Jun-17 13:25N 40°30' E 025°29'18811.9
2018-Jun-16 21:34N 37°39' E 023°49'312.9
2018-Jun-16 21:21N 37°40' E 023°46'412.3
2018-Jun-16 21:00N 37°42' E 023°41'713.0
2018-Jun-16 20:30N 37°48' E 023°37'612.9
2018-Jun-16 20:00N 37°54' E 023°36'3 5.8
2018-Jun-16 19:30N 37°57' E 023°36'0 0.0
2018-Jun-16 19:00N 37°57' E 023°36'0 0.0
2018-Jun-16 18:30N 37°57' E 023°36'0 0.0
2018-Jun-16 18:00N 37°57' E 023°36'0 0.0
2018-Jun-16 17:30N 37°57' E 023°36'0 0.0
2018-Jun-16 17:00N 37°57' E 023°36'0 0.0
2018-Jun-16 16:30N 37°57' E 023°36'0 0.0
2018-Jun-16 16:00N 37°57' E 023°36'0 0.0
2018-Jun-16 15:30N 37°57' E 023°36'0 0.0
2018-Jun-16 15:00N 37°57' E 023°36'0 0.0
2018-Jun-16 14:30N 37°57' E 023°36'3 5.5
2018-Jun-16 14:00N 37°55' E 023°36'4 8.9
2018-Jun-16 13:31N 37°50' E 023°35'612.6
2018-Jun-16 13:00N 37°57' E 023°36'1 1.8
2018-Jun-16 12:30N 37°57' E 023°36'0 0.0
2018-Jun-16 12:00N 37°57' E 023°36'0 0.0
2018-Jun-16 11:30N 37°57' E 023°36'0 0.0
2018-Jun-16 11:00N 37°57' E 023°36'0 0.0
2018-Jun-16 10:30N 37°57' E 023°36'0 0.0
2018-Jun-16 10:00N 37°57' E 023°36'0 0.0
2018-Jun-16 09:30N 37°57' E 023°36'0 0.0
2018-Jun-16 09:00N 37°57' E 023°36'0 0.0
2018-Jun-16 08:30N 37°57' E 023°36'0 0.0
2018-Jun-16 08:00N 37°57' E 023°36'0 0.0
2018-Jun-16 07:30N 37°57' E 023°36'0 0.0
2018-Jun-16 07:00N 37°57' E 023°36'0 0.0
2018-Jun-16 06:30N 37°57' E 023°36'0 0.0
2018-Jun-16 06:00N 37°57' E 023°36'0 0.0
2018-Jun-16 05:30N 37°57' E 023°36'0 0.0
2018-Jun-16 05:00N 37°57' E 023°36'0 0.0
2018-Jun-16 04:30N 37°57' E 023°36'0 0.0
2018-Jun-16 04:00N 37°57' E 023°36'0 0.0
2018-Jun-16 03:30N 37°57' E 023°36'0 0.0
2018-Jun-15 22:24N 37°57' E 023°36'0 0.0
2018-Jun-15 22:00N 37°57' E 023°36'0 0.0
2018-Jun-15 21:30N 37°57' E 023°36'0 0.0
2018-Jun-15 21:00N 37°57' E 023°36'0 0.0
2018-Jun-15 20:30N 37°57' E 023°36'0 0.0
2018-Jun-15 20:00N 37°57' E 023°36'0 0.0
2018-Jun-15 19:30N 37°57' E 023°36'0 0.0
2018-Jun-15 19:00N 37°57' E 023°36'0 0.0
2018-Jun-15 18:30N 37°57' E 023°36'0 0.0
2018-Jun-15 18:00N 37°57' E 023°36'0 0.2
2018-Jun-15 17:30N 37°57' E 023°36'0 0.2
2018-Jun-15 17:00N 37°57' E 023°36'0 0.0
2018-Jun-15 16:30N 37°57' E 023°36'0 0.0
2018-Jun-15 15:59N 37°57' E 023°36'0 0.0
2018-Jun-15 15:31N 37°57' E 023°36'0 0.0
2018-Jun-15 15:00N 37°57' E 023°36'0 0.0
2018-Jun-15 14:30N 37°57' E 023°36'0 0.0
2018-Jun-15 14:00N 37°57' E 023°36'0 0.0
2018-Jun-15 13:30N 37°57' E 023°36'0 0.0
2018-Jun-15 13:00N 37°57' E 023°36'0 0.0
2018-Jun-15 12:30N 37°57' E 023°36'0 0.0
2018-Jun-15 12:00N 37°57' E 023°36'0 0.0
2018-Jun-15 11:30N 37°57' E 023°36'0 0.0
2018-Jun-15 11:00N 37°57' E 023°36'0 0.0
2018-Jun-15 10:30N 37°57' E 023°36'0 0.0
2018-Jun-15 10:00N 37°57' E 023°36'0 0.0
2018-Jun-15 09:30N 37°57' E 023°36'0 0.0
2018-Jun-15 09:00N 37°57' E 023°36'0 0.0
2018-Jun-15 08:31N 37°57' E 023°36'0 0.0
2018-Jun-15 08:00N 37°57' E 023°36'0 0.0
2018-Jun-15 07:30N 37°57' E 023°36'0 0.0
2018-Jun-15 07:00N 37°57' E 023°36'0 0.0
2018-Jun-15 06:30N 37°57' E 023°36'0 0.0
2018-Jun-15 06:00N 37°57' E 023°36'0 0.0
2018-Jun-15 05:30N 37°57' E 023°36'0 0.0
2018-Jun-15 05:00N 37°57' E 023°36'0 0.0
2018-Jun-15 04:30N 37°57' E 023°36'0 0.0
2018-Jun-15 04:00N 37°57' E 023°36'0 0.0
2018-Jun-15 03:30N 37°57' E 023°36'0 0.0
2018-Jun-15 03:00N 37°57' E 023°36'0 0.0
2018-Jun-15 02:30N 37°57' E 023°36'0 0.0
2018-Jun-15 02:00N 37°57' E 023°36'0 0.0
2018-Jun-15 01:30N 37°57' E 023°36'0 0.0
2018-Jun-15 01:00N 37°57' E 023°36'0 0.0
2018-Jun-15 00:30N 37°57' E 023°36'0 0.0
2018-Jun-15 00:00N 37°57' E 023°36'0 0.0
2018-Jun-14 23:30N 37°57' E 023°36'0 0.0
2018-Jun-14 23:00N 37°57' E 023°36'0 0.0
2018-Jun-14 22:30N 37°57' E 023°36'0 0.0
2018-Jun-14 22:00N 37°57' E 023°36'0 0.0
2018-Jun-14 21:30N 37°57' E 023°36'0 0.0
2018-Jun-14 21:00N 37°57' E 023°36'0 0.0
2018-Jun-14 20:30N 37°57' E 023°36'0 0.0
2018-Jun-14 20:01N 37°57' E 023°36'0 0.0
2018-Jun-14 19:30N 37°57' E 023°36'0 0.0
2018-Jun-14 19:01N 37°57' E 023°36'0 0.0
2018-Jun-14 18:30N 37°57' E 023°36'0 0.0
2018-Jun-14 18:00N 37°57' E 023°36'0 0.0
2018-Jun-14 17:30N 37°57' E 023°36'0 0.0
2018-Jun-14 17:00N 37°57' E 023°36'0 0.0
2018-Jun-14 16:30N 37°57' E 023°36'0 0.0
2018-Jun-14 16:00N 37°57' E 023°36'0 0.0
2018-Jun-14 15:30N 37°57' E 023°36'0 0.0
2018-Jun-14 15:00N 37°57' E 023°36'0 0.0
2018-Jun-14 14:30N 37°57' E 023°36'0 0.0
2018-Jun-14 14:01N 37°57' E 023°36'0 0.0
2018-Jun-14 13:31N 37°57' E 023°36'0 0.0
2018-Jun-14 13:01N 37°57' E 023°36'0 0.0
2018-Jun-14 12:31N 37°57' E 023°36'0 0.0
2018-Jun-14 12:01N 37°57' E 023°36'0 0.0
2018-Jun-14 11:30N 37°57' E 023°36'0 0.0
2018-Jun-14 11:01N 37°57' E 023°36'0 0.0
2018-Jun-14 10:30N 37°57' E 023°36'0 0.0
2018-Jun-14 10:01N 37°57' E 023°36'0 0.0
2018-Jun-14 09:31N 37°57' E 023°36'0 0.0
2018-Jun-14 09:00N 37°57' E 023°36'0 0.0
2018-Jun-14 08:30N 37°57' E 023°36'0 0.0
2018-Jun-13 14:42N 37°57' E 023°36'0 0.0
2018-Jun-13 14:31N 37°57' E 023°36'0 0.0
2018-Jun-13 14:01N 37°57' E 023°36'0 0.0
2018-Jun-13 13:30N 37°57' E 023°36'0 0.0
2018-Jun-13 13:01N 37°57' E 023°36'0 0.0
2018-Jun-13 12:31N 37°57' E 023°36'0 0.0
2018-Jun-13 12:01N 37°57' E 023°36'0 0.0
2018-Jun-13 11:31N 37°57' E 023°36'0 0.0
2018-Jun-13 11:00N 37°57' E 023°36'0 0.0
2018-Jun-13 10:29N 37°57' E 023°36'0 0.0
2018-Jun-13 10:00N 37°57' E 023°36'0 0.0
2018-Jun-13 09:30N 37°57' E 023°36'0 0.0
2018-Jun-13 09:01N 37°57' E 023°36'0 0.0
2018-Jun-13 08:31N 37°57' E 023°36'0 0.0
2018-Jun-13 08:01N 37°57' E 023°36'0 0.0
2018-Jun-13 07:30N 37°57' E 023°36'0 0.0
2018-Jun-13 07:01N 37°57' E 023°36'0 0.0
2018-Jun-13 06:31N 37°57' E 023°36'0 0.0
2018-Jun-13 06:01N 37°57' E 023°36'0 0.0
2018-Jun-13 05:31N 37°57' E 023°36'0 0.0
2018-Jun-13 05:01N 37°57' E 023°36'0 0.0
2018-Jun-13 04:31N 37°57' E 023°36'0 0.0
2018-Jun-12 21:23N 37°57' E 023°36'0 0.0
2018-Jun-12 21:00N 37°57' E 023°36'0 0.0
2018-Jun-12 20:30N 37°57' E 023°36'0 0.0
2018-Jun-12 20:00N 37°57' E 023°36'0 0.0
2018-Jun-12 19:30N 37°57' E 023°36'0 0.0
2018-Jun-12 18:59N 37°57' E 023°36'0 0.0
2018-Jun-12 18:30N 37°57' E 023°36'0 0.0
2018-Jun-12 18:00N 37°57' E 023°36'0 0.0
2018-Jun-12 17:30N 37°57' E 023°36'0 0.0
2018-Jun-12 17:00N 37°57' E 023°36'0 0.0
2018-Jun-12 16:30N 37°57' E 023°36'0 0.0
2018-Jun-12 16:00N 37°57' E 023°36'0 0.0
2018-Jun-12 15:30N 37°57' E 023°36'0 0.0
2018-Jun-12 15:00N 37°57' E 023°36'0 0.0
2018-Jun-12 14:30N 37°57' E 023°36'0 0.0
2018-Jun-12 14:00N 37°57' E 023°36'0 0.0
2018-Jun-12 13:30N 37°57' E 023°36'0 0.0
2018-Jun-12 13:00N 37°57' E 023°36'0 0.0
2018-Jun-12 12:30N 37°57' E 023°36'0 0.0
2018-Jun-12 12:00N 37°57' E 023°36'0 0.0
2018-Jun-12 11:30N 37°57' E 023°36'0 0.0
2018-Jun-12 11:00N 37°57' E 023°36'0 0.0
2018-Jun-12 10:30N 37°57' E 023°36'0 0.0
2018-Jun-12 10:00N 37°57' E 023°36'0 0.0
2018-Jun-12 09:31N 37°57' E 023°36'0 0.0
2018-Jun-12 09:00N 37°57' E 023°36'0 0.0
2018-Jun-12 08:30N 37°57' E 023°36'0 0.0
2018-Jun-12 08:00N 37°57' E 023°36'0 0.0
2018-Jun-12 07:30N 37°57' E 023°36'0 0.0
2018-Jun-12 07:00N 37°57' E 023°36'0 0.0
2018-Jun-12 06:30N 37°57' E 023°36'0 0.0
2018-Jun-12 06:00N 37°57' E 023°36'0 0.0
2018-Jun-12 05:30N 37°57' E 023°36'0 0.0
2018-Jun-12 05:00N 37°57' E 023°36'0 0.0
2018-Jun-12 04:30N 37°57' E 023°36'0 0.0
2018-Jun-11 20:43N 37°57' E 023°36'0 0.0
2018-Jun-11 20:30N 37°57' E 023°36'0 0.0
2018-Jun-11 20:00N 37°57' E 023°36'0 0.0
2018-Jun-11 19:30N 37°57' E 023°36'0 0.0
2018-Jun-11 19:00N 37°57' E 023°36'0 0.0
2018-Jun-11 18:30N 37°57' E 023°36'0 0.0
2018-Jun-11 18:00N 37°57' E 023°36'0 0.0
2018-Jun-11 17:30N 37°57' E 023°36'0 0.0
2018-Jun-11 17:00N 37°57' E 023°36'0 0.0
2018-Jun-11 16:30N 37°57' E 023°36'0 0.0
2018-Jun-11 16:00N 37°57' E 023°36'0 0.0
2018-Jun-11 15:30N 37°57' E 023°36'0 0.0
2018-Jun-11 15:00N 37°57' E 023°36'0 0.0
2018-Jun-11 14:30N 37°57' E 023°36'0 0.0
2018-Jun-11 14:00N 37°57' E 023°36'0 0.0
2018-Jun-11 13:30N 37°57' E 023°36'0 0.0
2018-Jun-11 13:00N 37°57' E 023°36'0 0.0
2018-Jun-11 12:30N 37°57' E 023°36'0 0.0
2018-Jun-11 12:00N 37°57' E 023°36'0 0.0
2018-Jun-11 11:30N 37°57' E 023°36'0 0.0
2018-Jun-11 11:00N 37°57' E 023°36'0 0.0
2018-Jun-11 10:30N 37°57' E 023°36'0 0.0
2018-Jun-11 10:00N 37°57' E 023°36'0 0.0
2018-Jun-11 09:30N 37°57' E 023°36'0 0.0
2018-Jun-11 09:00N 37°57' E 023°36'0 0.0
2018-Jun-11 08:30N 37°57' E 023°36'0 0.0
2018-Jun-11 08:00N 37°57' E 023°36'0 0.0
2018-Jun-11 07:29N 37°57' E 023°36'0 0.0
2018-Jun-11 07:00N 37°57' E 023°36'0 0.0
2018-Jun-11 06:30N 37°57' E 023°36'0 0.0
2018-Jun-11 06:00N 37°57' E 023°36'0 0.0
2018-Jun-11 05:30N 37°57' E 023°36'0 0.0
2018-Jun-11 05:00N 37°57' E 023°36'0 0.0
2018-Jun-11 04:30N 37°57' E 023°36'0 0.0
2018-Jun-11 04:00N 37°57' E 023°36'0 0.0
2018-Jun-11 03:30N 37°57' E 023°36'0 0.0
2018-Jun-11 03:00N 37°57' E 023°36'0 0.0
2018-Jun-11 02:30N 37°57' E 023°36'0 0.0
2018-Jun-11 02:00N 37°57' E 023°36'0 0.0
2018-Jun-11 01:30N 37°57' E 023°36'0 0.0
2018-Jun-11 01:00N 37°57' E 023°36'0 0.0
2018-Jun-11 00:30N 37°57' E 023°36'0 0.0
2018-Jun-11 00:00N 37°57' E 023°36'0 0.0
2018-Jun-10 23:30N 37°57' E 023°36'0 0.0
2018-Jun-10 23:00N 37°57' E 023°36'0 0.0
2018-Jun-10 22:30N 37°57' E 023°36'0 0.0
2018-Jun-10 22:00N 37°57' E 023°36'0 0.0
2018-Jun-10 21:30N 37°57' E 023°36'0 0.0
2018-Jun-10 21:00N 37°57' E 023°36'0 0.0
2018-Jun-10 20:30N 37°57' E 023°36'0 0.0
2018-Jun-10 20:00N 37°57' E 023°36'0 0.0
2018-Jun-10 19:30N 37°57' E 023°36'0 0.0
2018-Jun-10 19:00N 37°57' E 023°36'0 0.0
2018-Jun-10 18:30N 37°57' E 023°36'0 0.0
2018-Jun-10 18:00N 37°57' E 023°36'0 0.0
2018-Jun-10 17:30N 37°57' E 023°36'0 0.0
2018-Jun-10 17:00N 37°57' E 023°36'0 0.0
2018-Jun-10 16:30N 37°57' E 023°36'0 0.0
2018-Jun-10 16:00N 37°57' E 023°36'0 0.0
2018-Jun-10 15:30N 37°57' E 023°36'0 0.0
2018-Jun-10 15:00N 37°57' E 023°36'0 0.0
2018-Jun-10 14:30N 37°57' E 023°36'0 0.0
2018-Jun-10 13:30N 37°57' E 023°36'0 0.0
2018-Jun-10 13:00N 37°57' E 023°36'0 0.0
2018-Jun-10 12:30N 37°57' E 023°36'0 0.0
2018-Jun-10 12:00N 37°57' E 023°36'0 0.0
2018-Jun-10 11:30N 37°57' E 023°36'0 0.0
2018-Jun-10 11:00N 37°57' E 023°36'0 0.0
2018-Jun-10 10:30N 37°57' E 023°36'0 0.0
2018-Jun-10 10:00N 37°57' E 023°36'0 0.0
2018-Jun-10 09:30N 37°57' E 023°36'0 0.0
2018-Jun-10 09:00N 37°57' E 023°36'0 0.0
2018-Jun-10 08:30N 37°57' E 023°36'0 0.0
2018-Jun-10 08:00N 37°57' E 023°36'0 0.0
2018-Jun-10 07:30N 37°57' E 023°36'0 0.0
2018-Jun-10 07:00N 37°57' E 023°36'0 0.0
2018-Jun-10 06:30N 37°57' E 023°36'0 0.0
2018-Jun-10 06:00N 37°57' E 023°36'0 0.0
2018-Jun-10 05:30N 37°57' E 023°36'0 0.0
2018-Jun-10 05:00N 37°57' E 023°36'0 0.0
2018-Jun-09 20:35N 37°57' E 023°36'0 0.0
2018-Jun-09 20:30N 37°57' E 023°36'0 0.0
2018-Jun-09 20:00N 37°57' E 023°36'0 0.0
2018-Jun-09 19:30N 37°57' E 023°36'0 0.0
2018-Jun-09 19:00N 37°57' E 023°36'0 0.0
2018-Jun-09 18:19N 37°57' E 023°36'0 0.0
2018-Jun-09 18:00N 37°57' E 023°36'0 0.0
2018-Jun-09 17:30N 37°57' E 023°36'0 0.0
2018-Jun-09 17:00N 37°57' E 023°36'0 0.0
2018-Jun-09 16:30N 37°57' E 023°36'0 0.0
2018-Jun-09 16:00N 37°57' E 023°36'0 0.0
2018-Jun-09 15:00N 37°57' E 023°36'0 0.0
2018-Jun-09 14:30N 37°57' E 023°36'0 0.0
2018-Jun-09 14:00N 37°57' E 023°36'0 0.0
2018-Jun-09 13:30N 37°57' E 023°36'0 0.0
2018-Jun-09 12:59N 37°57' E 023°36'0 0.0
2018-Jun-09 12:30N 37°57' E 023°36'0 0.0
2018-Jun-09 12:00N 37°57' E 023°36'0 0.0
2018-Jun-09 11:30N 37°57' E 023°36'0 0.0
2018-Jun-09 11:00N 37°57' E 023°36'0 0.0
2018-Jun-09 10:29N 37°57' E 023°36'0 0.0
2018-Jun-09 10:00N 37°57' E 023°36'0 0.0
2018-Jun-09 09:30N 37°57' E 023°36'0 0.0
2018-Jun-09 09:00N 37°57' E 023°36'  
Track history (hours):
 
Tides and Currents Weather Stations Pressure Air Temp Water Temp Dewpoint Dewpoint Depression Visibility Wind Speed Wind Dir Waves Ship Positions

Saos II

Last reported at 2018-Jun-19 08:42 UTC. Time now 2018-Jun-20 15:22 UTC.
Position N 40°28' E 025°28'.

Length 75 m; draft 4.5 m.

Type: Passenger vessel. MMSI: 237352400.

Date/timePositionNaut miles runAvg speedWind from/ knotsBaromVisibWave heightAir tempDewpointWater temp
2018-Jun-19 08:42N 40°28' E 025°28'2 5.9
2018-Jun-19 08:26N 40°30' E 025°28'28 2.0
2018-Jun-18 18:43N 40°50' E 025°53'1811.8
2018-Jun-18 17:13N 40°37' E 025°38'513.0
2018-Jun-18 16:51N 40°33' E 025°34'513.0
2018-Jun-18 16:29N 40°30' E 025°29'2 3.6
2018-Jun-18 15:59N 40°28' E 025°28'0 0.0
2018-Jun-18 15:30N 40°28' E 025°28'0 0.0
2018-Jun-18 15:00N 40°28' E 025°28'0 0.0
2018-Jun-18 14:30N 40°28' E 025°28'0 0.0
2018-Jun-18 14:00N 40°28' E 025°28'0 0.0
2018-Jun-18 13:30N 40°28' E 025°28'0 0.0
2018-Jun-18 13:00N 40°28' E 025°28'0 0.0
2018-Jun-18 11:50N 40°28' E 025°28'0 0.0
2018-Jun-18 11:27N 40°28' E 025°28'0 0.0
2018-Jun-18 11:00N 40°28' E 025°28'0 0.0
2018-Jun-18 10:30N 40°28' E 025°28'0 0.0
2018-Jun-18 10:00N 40°28' E 025°28'0 0.0
2018-Jun-18 09:29N 40°28' E 025°28'0 0.0
2018-Jun-18 09:00N 40°28' E 025°28'1 2.1
2018-Jun-18 08:30N 40°30' E 025°28'612.8
2018-Jun-18 08:00N 40°34' E 025°34'2212.0
2018-Jun-18 06:11N 40°50' E 025°53'20 1.2
2018-Jun-17 13:59N 40°35' E 025°37'713.2
2018-Jun-17 13:25N 40°30' E 025°29'18811.9
2018-Jun-16 21:34N 37°39' E 023°49'312.9
2018-Jun-16 21:21N 37°40' E 023°46'412.3
2018-Jun-16 21:00N 37°42' E 023°41'713.0
2018-Jun-16 20:30N 37°48' E 023°37'612.9
2018-Jun-16 20:00N 37°54' E 023°36'3 5.8
2018-Jun-16 19:30N 37°57' E 023°36'0 0.0
2018-Jun-16 19:00N 37°57' E 023°36'0 0.0
2018-Jun-16 18:30N 37°57' E 023°36'0 0.0
2018-Jun-16 18:00N 37°57' E 023°36'0 0.0
2018-Jun-16 17:30N 37°57' E 023°36'0 0.0
2018-Jun-16 17:00N 37°57' E 023°36'0 0.0
2018-Jun-16 16:30N 37°57' E 023°36'0 0.0
2018-Jun-16 16:00N 37°57' E 023°36'0 0.0
2018-Jun-16 15:30N 37°57' E 023°36'0 0.0
2018-Jun-16 15:00N 37°57' E 023°36'0 0.0
2018-Jun-16 14:30N 37°57' E 023°36'3 5.5
2018-Jun-16 14:00N 37°55' E 023°36'4 8.9
2018-Jun-16 13:31N 37°50' E 023°35'612.6
2018-Jun-16 13:00N 37°57' E 023°36'1 1.8
2018-Jun-16 12:30N 37°57' E 023°36'0 0.0
2018-Jun-16 12:00N 37°57' E 023°36'0 0.0
2018-Jun-16 11:30N 37°57' E 023°36'0 0.0
2018-Jun-16 11:00N 37°57' E 023°36'0 0.0
2018-Jun-16 10:30N 37°57' E 023°36'0 0.0
2018-Jun-16 10:00N 37°57' E 023°36'0 0.0
2018-Jun-16 09:30N 37°57' E 023°36'0 0.0
2018-Jun-16 09:00N 37°57' E 023°36'0 0.0
2018-Jun-16 08:30N 37°57' E 023°36'0 0.0
2018-Jun-16 08:00N 37°57' E 023°36'0 0.0
2018-Jun-16 07:30N 37°57' E 023°36'0 0.0
2018-Jun-16 07:00N 37°57' E 023°36'0 0.0
2018-Jun-16 06:30N 37°57' E 023°36'0 0.0
2018-Jun-16 06:00N 37°57' E 023°36'0 0.0
2018-Jun-16 05:30N 37°57' E 023°36'0 0.0
2018-Jun-16 05:00N 37°57' E 023°36'0 0.0
2018-Jun-16 04:30N 37°57' E 023°36'0 0.0
2018-Jun-16 04:00N 37°57' E 023°36'0 0.0
2018-Jun-16 03:30N 37°57' E 023°36'0 0.0
2018-Jun-15 22:24N 37°57' E 023°36'0 0.0
2018-Jun-15 22:00N 37°57' E 023°36'0 0.0
2018-Jun-15 21:30N 37°57' E 023°36'0 0.0
2018-Jun-15 21:00N 37°57' E 023°36'0 0.0
2018-Jun-15 20:30N 37°57' E 023°36'0 0.0
2018-Jun-15 20:00N 37°57' E 023°36'0 0.0
2018-Jun-15 19:30N 37°57' E 023°36'0 0.0
2018-Jun-15 19:00N 37°57' E 023°36'0 0.0
2018-Jun-15 18:30N 37°57' E 023°36'0 0.0
2018-Jun-15 18:00N 37°57' E 023°36'0 0.2
2018-Jun-15 17:30N 37°57' E 023°36'0 0.2
2018-Jun-15 17:00N 37°57' E 023°36'0 0.0
2018-Jun-15 16:30N 37°57' E 023°36'0 0.0
2018-Jun-15 15:59N 37°57' E 023°36'0 0.0
2018-Jun-15 15:31N 37°57' E 023°36'0 0.0
2018-Jun-15 15:00N 37°57' E 023°36'0 0.0
2018-Jun-15 14:30N 37°57' E 023°36'0 0.0
2018-Jun-15 14:00N 37°57' E 023°36'0 0.0
2018-Jun-15 13:30N 37°57' E 023°36'0 0.0
2018-Jun-15 13:00N 37°57' E 023°36'0 0.0
2018-Jun-15 12:30N 37°57' E 023°36'0 0.0
2018-Jun-15 12:00N 37°57' E 023°36'0 0.0
2018-Jun-15 11:30N 37°57' E 023°36'0 0.0
2018-Jun-15 11:00N 37°57' E 023°36'0 0.0
2018-Jun-15 10:30N 37°57' E 023°36'0 0.0
2018-Jun-15 10:00N 37°57' E 023°36'0 0.0
2018-Jun-15 09:30N 37°57' E 023°36'0 0.0
2018-Jun-15 09:00N 37°57' E 023°36'0 0.0
2018-Jun-15 08:31N 37°57' E 023°36'0 0.0
2018-Jun-15 08:00N 37°57' E 023°36'0 0.0
2018-Jun-15 07:30N 37°57' E 023°36'0 0.0
2018-Jun-15 07:00N 37°57' E 023°36'0 0.0
2018-Jun-15 06:30N 37°57' E 023°36'0 0.0
2018-Jun-15 06:00N 37°57' E 023°36'0 0.0
2018-Jun-15 05:30N 37°57' E 023°36'0 0.0
2018-Jun-15 05:00N 37°57' E 023°36'0 0.0
2018-Jun-15 04:30N 37°57' E 023°36'0 0.0
2018-Jun-15 04:00N 37°57' E 023°36'0 0.0
2018-Jun-15 03:30N 37°57' E 023°36'0 0.0
2018-Jun-15 03:00N 37°57' E 023°36'0 0.0
2018-Jun-15 02:30N 37°57' E 023°36'0 0.0
2018-Jun-15 02:00N 37°57' E 023°36'0 0.0
2018-Jun-15 01:30N 37°57' E 023°36'0 0.0
2018-Jun-15 01:00N 37°57' E 023°36'0 0.0
2018-Jun-15 00:30N 37°57' E 023°36'0 0.0
2018-Jun-15 00:00N 37°57' E 023°36'0 0.0
2018-Jun-14 23:30N 37°57' E 023°36'0 0.0
2018-Jun-14 23:00N 37°57' E 023°36'0 0.0
2018-Jun-14 22:30N 37°57' E 023°36'0 0.0
2018-Jun-14 22:00N 37°57' E 023°36'0 0.0
2018-Jun-14 21:30N 37°57' E 023°36'0 0.0
2018-Jun-14 21:00N 37°57' E 023°36'0 0.0
2018-Jun-14 20:30N 37°57' E 023°36'0 0.0
2018-Jun-14 20:01N 37°57' E 023°36'0 0.0
2018-Jun-14 19:30N 37°57' E 023°36'0 0.0
2018-Jun-14 19:01N 37°57' E 023°36'0 0.0
2018-Jun-14 18:30N 37°57' E 023°36'0 0.0
2018-Jun-14 18:00N 37°57' E 023°36'0 0.0
2018-Jun-14 17:30N 37°57' E 023°36'0 0.0
2018-Jun-14 17:00N 37°57' E 023°36'0 0.0
2018-Jun-14 16:30N 37°57' E 023°36'0 0.0
2018-Jun-14 16:00N 37°57' E 023°36'0 0.0
2018-Jun-14 15:30N 37°57' E 023°36'0 0.0
2018-Jun-14 15:00N 37°57' E 023°36'0 0.0
2018-Jun-14 14:30N 37°57' E 023°36'0 0.0
2018-Jun-14 14:01N 37°57' E 023°36'0 0.0
2018-Jun-14 13:31N 37°57' E 023°36'0 0.0
2018-Jun-14 13:01N 37°57' E 023°36'0 0.0
2018-Jun-14 12:31N 37°57' E 023°36'0 0.0
2018-Jun-14 12:01N 37°57' E 023°36'0 0.0
2018-Jun-14 11:30N 37°57' E 023°36'0 0.0
2018-Jun-14 11:01N 37°57' E 023°36'0 0.0
2018-Jun-14 10:30N 37°57' E 023°36'0 0.0
2018-Jun-14 10:01N 37°57' E 023°36'0 0.0
2018-Jun-14 09:31N 37°57' E 023°36'0 0.0
2018-Jun-14 09:00N 37°57' E 023°36'0 0.0
2018-Jun-14 08:30N 37°57' E 023°36'0 0.0
2018-Jun-13 14:42N 37°57' E 023°36'0 0.0
2018-Jun-13 14:31N 37°57' E 023°36'0 0.0
2018-Jun-13 14:01N 37°57' E 023°36'0 0.0
2018-Jun-13 13:30N 37°57' E 023°36'0 0.0
2018-Jun-13 13:01N 37°57' E 023°36'0 0.0
2018-Jun-13 12:31N 37°57' E 023°36'0 0.0
2018-Jun-13 12:01N 37°57' E 023°36'0 0.0
2018-Jun-13 11:31N 37°57' E 023°36'0 0.0
2018-Jun-13 11:00N 37°57' E 023°36'0 0.0
2018-Jun-13 10:29N 37°57' E 023°36'0 0.0
2018-Jun-13 10:00N 37°57' E 023°36'0 0.0
2018-Jun-13 09:30N 37°57' E 023°36'0 0.0
2018-Jun-13 09:01N 37°57' E 023°36'0 0.0
2018-Jun-13 08:31N 37°57' E 023°36'0 0.0
2018-Jun-13 08:01N 37°57' E 023°36'0 0.0
2018-Jun-13 07:30N 37°57' E 023°36'0 0.0
2018-Jun-13 07:01N 37°57' E 023°36'0 0.0
2018-Jun-13 06:31N 37°57' E 023°36'0 0.0
2018-Jun-13 06:01N 37°57' E 023°36'0 0.0
2018-Jun-13 05:31N 37°57' E 023°36'0 0.0
2018-Jun-13 05:01N 37°57' E 023°36'0 0.0
2018-Jun-13 04:31N 37°57' E 023°36'0 0.0
2018-Jun-12 21:23N 37°57' E 023°36'0 0.0
2018-Jun-12 21:00N 37°57' E 023°36'0 0.0
2018-Jun-12 20:30N 37°57' E 023°36'0 0.0
2018-Jun-12 20:00N 37°57' E 023°36'0 0.0
2018-Jun-12 19:30N 37°57' E 023°36'0 0.0
2018-Jun-12 18:59N 37°57' E 023°36'0 0.0
2018-Jun-12 18:30N 37°57' E 023°36'0 0.0
2018-Jun-12 18:00N 37°57' E 023°36'0 0.0
2018-Jun-12 17:30N 37°57' E 023°36'0 0.0
2018-Jun-12 17:00N 37°57' E 023°36'0 0.0
2018-Jun-12 16:30N 37°57' E 023°36'0 0.0
2018-Jun-12 16:00N 37°57' E 023°36'0 0.0
2018-Jun-12 15:30N 37°57' E 023°36'0 0.0
2018-Jun-12 15:00N 37°57' E 023°36'0 0.0
2018-Jun-12 14:30N 37°57' E 023°36'0 0.0
2018-Jun-12 14:00N 37°57' E 023°36'0 0.0
2018-Jun-12 13:30N 37°57' E 023°36'0 0.0
2018-Jun-12 13:00N 37°57' E 023°36'0 0.0
2018-Jun-12 12:30N 37°57' E 023°36'0 0.0
2018-Jun-12 12:00N 37°57' E 023°36'0 0.0
2018-Jun-12 11:30N 37°57' E 023°36'0 0.0
2018-Jun-12 11:00N 37°57' E 023°36'0 0.0
2018-Jun-12 10:30N 37°57' E 023°36'0 0.0
2018-Jun-12 10:00N 37°57' E 023°36'0 0.0
2018-Jun-12 09:31N 37°57' E 023°36'0 0.0
2018-Jun-12 09:00N 37°57' E 023°36'0 0.0
2018-Jun-12 08:30N 37°57' E 023°36'0 0.0
2018-Jun-12 08:00N 37°57' E 023°36'0 0.0
2018-Jun-12 07:30N 37°57' E 023°36'0 0.0
2018-Jun-12 07:00N 37°57' E 023°36'0 0.0
2018-Jun-12 06:30N 37°57' E 023°36'0 0.0
2018-Jun-12 06:00N 37°57' E 023°36'0 0.0
2018-Jun-12 05:30N 37°57' E 023°36'0 0.0
2018-Jun-12 05:00N 37°57' E 023°36'0 0.0
2018-Jun-12 04:30N 37°57' E 023°36'0 0.0
2018-Jun-11 20:43N 37°57' E 023°36'0 0.0
2018-Jun-11 20:30N 37°57' E 023°36'0 0.0
2018-Jun-11 20:00N 37°57' E 023°36'0 0.0
2018-Jun-11 19:30N 37°57' E 023°36'0 0.0
2018-Jun-11 19:00N 37°57' E 023°36'0 0.0
2018-Jun-11 18:30N 37°57' E 023°36'0 0.0
2018-Jun-11 18:00N 37°57' E 023°36'0 0.0
2018-Jun-11 17:30N 37°57' E 023°36'0 0.0
2018-Jun-11 17:00N 37°57' E 023°36'0 0.0
2018-Jun-11 16:30N 37°57' E 023°36'0 0.0
2018-Jun-11 16:00N 37°57' E 023°36'0 0.0
2018-Jun-11 15:30N 37°57' E 023°36'0 0.0
2018-Jun-11 15:00N 37°57' E 023°36'0 0.0
2018-Jun-11 14:30N 37°57' E 023°36'0 0.0
2018-Jun-11 14:00N 37°57' E 023°36'0 0.0
2018-Jun-11 13:30N 37°57' E 023°36'0 0.0
2018-Jun-11 13:00N 37°57' E 023°36'0 0.0
2018-Jun-11 12:30N 37°57' E 023°36'0 0.0
2018-Jun-11 12:00N 37°57' E 023°36'0 0.0
2018-Jun-11 11:30N 37°57' E 023°36'0 0.0
2018-Jun-11 11:00N 37°57' E 023°36'0 0.0
2018-Jun-11 10:30N 37°57' E 023°36'0 0.0
2018-Jun-11 10:00N 37°57' E 023°36'0 0.0
2018-Jun-11 09:30N 37°57' E 023°36'0 0.0
2018-Jun-11 09:00N 37°57' E 023°36'0 0.0
2018-Jun-11 08:30N 37°57' E 023°36'0 0.0
2018-Jun-11 08:00N 37°57' E 023°36'0 0.0
2018-Jun-11 07:29N 37°57' E 023°36'0 0.0
2018-Jun-11 07:00N 37°57' E 023°36'0 0.0
2018-Jun-11 06:30N 37°57' E 023°36'0 0.0
2018-Jun-11 06:00N 37°57' E 023°36'0 0.0
2018-Jun-11 05:30N 37°57' E 023°36'0 0.0
2018-Jun-11 05:00N 37°57' E 023°36'0 0.0
2018-Jun-11 04:30N 37°57' E 023°36'0 0.0
2018-Jun-11 04:00N 37°57' E 023°36'0 0.0
2018-Jun-11 03:30N 37°57' E 023°36'0 0.0
2018-Jun-11 03:00N 37°57' E 023°36'0 0.0
2018-Jun-11 02:30N 37°57' E 023°36'0 0.0
2018-Jun-11 02:00N 37°57' E 023°36'0 0.0
2018-Jun-11 01:30N 37°57' E 023°36'0 0.0
2018-Jun-11 01:00N 37°57' E 023°36'0 0.0
2018-Jun-11 00:30N 37°57' E 023°36'0 0.0
2018-Jun-11 00:00N 37°57' E 023°36'0 0.0
2018-Jun-10 23:30N 37°57' E 023°36'0 0.0
2018-Jun-10 23:00N 37°57' E 023°36'0 0.0
2018-Jun-10 22:30N 37°57' E 023°36'0 0.0
2018-Jun-10 22:00N 37°57' E 023°36'0 0.0
2018-Jun-10 21:30N 37°57' E 023°36'0 0.0
2018-Jun-10 21:00N 37°57' E 023°36'0 0.0
2018-Jun-10 20:30N 37°57' E 023°36'0 0.0
2018-Jun-10 20:00N 37°57' E 023°36'0 0.0
2018-Jun-10 19:30N 37°57' E 023°36'0 0.0
2018-Jun-10 19:00N 37°57' E 023°36'0 0.0
2018-Jun-10 18:30N 37°57' E 023°36'0 0.0
2018-Jun-10 18:00N 37°57' E 023°36'0 0.0
2018-Jun-10 17:30N 37°57' E 023°36'0 0.0
2018-Jun-10 17:00N 37°57' E 023°36'0 0.0
2018-Jun-10 16:30N 37°57' E 023°36'0 0.0
2018-Jun-10 16:00N 37°57' E 023°36'0 0.0
2018-Jun-10 15:30N 37°57' E 023°36'0 0.0
2018-Jun-10 15:00N 37°57' E 023°36'0 0.0
2018-Jun-10 14:30N 37°57' E 023°36'0 0.0
2018-Jun-10 13:30N 37°57' E 023°36'0 0.0
2018-Jun-10 13:00N 37°57' E 023°36'0 0.0
2018-Jun-10 12:30N 37°57' E 023°36'0 0.0
2018-Jun-10 12:00N 37°57' E 023°36'0 0.0
2018-Jun-10 11:30N 37°57' E 023°36'0 0.0
2018-Jun-10 11:00N 37°57' E 023°36'0 0.0
2018-Jun-10 10:30N 37°57' E 023°36'0 0.0
2018-Jun-10 10:00N 37°57' E 023°36'0 0.0
2018-Jun-10 09:30N 37°57' E 023°36'0 0.0
2018-Jun-10 09:00N 37°57' E 023°36'0 0.0
2018-Jun-10 08:30N 37°57' E 023°36'0 0.0
2018-Jun-10 08:00N 37°57' E 023°36'0 0.0
2018-Jun-10 07:30N 37°57' E 023°36'0 0.0
2018-Jun-10 07:00N 37°57' E 023°36'0 0.0
2018-Jun-10 06:30N 37°57' E 023°36'0 0.0
2018-Jun-10 06:00N 37°57' E 023°36'0 0.0
2018-Jun-10 05:30N 37°57' E 023°36'0 0.0
2018-Jun-10 05:00N 37°57' E 023°36'0 0.0
2018-Jun-09 20:35N 37°57' E 023°36'0 0.0
2018-Jun-09 20:30N 37°57' E 023°36'0 0.0
2018-Jun-09 20:00N 37°57' E 023°36'0 0.0
2018-Jun-09 19:30N 37°57' E 023°36'0 0.0
2018-Jun-09 19:00N 37°57' E 023°36'0 0.0
2018-Jun-09 18:19N 37°57' E 023°36'0 0.0
2018-Jun-09 18:00N 37°57' E 023°36'0 0.0
2018-Jun-09 17:30N 37°57' E 023°36'0 0.0
2018-Jun-09 17:00N 37°57' E 023°36'0 0.0
2018-Jun-09 16:30N 37°57' E 023°36'0 0.0
2018-Jun-09 16:00N 37°57' E 023°36'0 0.0
2018-Jun-09 15:00N 37°57' E 023°36'0 0.0
2018-Jun-09 14:30N 37°57' E 023°36'0 0.0
2018-Jun-09 14:00N 37°57' E 023°36'0 0.0
2018-Jun-09 13:30N 37°57' E 023°36'0 0.0
2018-Jun-09 12:59N 37°57' E 023°36'0 0.0
2018-Jun-09 12:30N 37°57' E 023°36'0 0.0
2018-Jun-09 12:00N 37°57' E 023°36'0 0.0
2018-Jun-09 11:30N 37°57' E 023°36'0 0.0
2018-Jun-09 11:00N 37°57' E 023°36'0 0.0
2018-Jun-09 10:29N 37°57' E 023°36'0 0.0
2018-Jun-09 10:00N 37°57' E 023°36'0 0.0
2018-Jun-09 09:30N 37°57' E 023°36'0 0.0
2018-Jun-09 09:00N 37°57' E 023°36'  

Dump ship's entire track history